EPGD Airport Information

Runway Information
Runway 11 Length 9186 ft width 148 ft
Elevation 450 ft Threshold 0 ft Heading 113
Runway 29 Length 9186 ft Width 148 ft
Elevation 489 ft Threshold 0 ft Heading 293
Airport Frequencies
Type APP Name GDANSK APP Frequency 127.275 MHZ
Type ATIS Name ATIS Frequency 129.625 MHZ
Type TWR Name GDANSK TWR Frequency 118.1 MHZ
Airport Navaids
Type NDB Name Gdansk Frequency 322 KHZ
Type VOR-DME Name Kartuzy Frequency 113200 KHZ
Type NDB Name Gdansk Frequency 383 KHZ
Airport Weather Information & NOTAM
ADDS - METARS form results

(1321 UTC 23 February 2019)
Data provider http://aviationweather.gov/metar/data/
 
METAR text: EPGD 231300Z 23011KT 9999 BKN043 M00/M12 Q1042 R11/190095
Conditions at: EPGD (GDANSK/REBIECHOW, PL) observed 1300 UTC 23 February 2019
Temperature: 0.0°C (32°F)
Dewpoint: -12.0°C (10°F) [RH = 40%]
Pressure (altimeter): 30.77 inches Hg (1042.0 mb)
Winds: from the SW (230 degrees) at 13 MPH (11 knots; 5.7 m/s)
Visibility: 6 or more miles (10+ km)
Ceiling: 4300 feet AGL
Clouds: broken clouds at 4300 feet AGL
Weather: no significant weather observed at this time

METAR text: EPGD 231230Z 24010KT 9999 BKN047 M00/M13 Q1042 R11/190095
Conditions at: EPGD (GDANSK/REBIECHOW, PL) observed 1230 UTC 23 February 2019
Temperature: 0.0°C (32°F)
Dewpoint: -13.0°C ( 9°F) [RH = 37%]
Pressure (altimeter): 30.77 inches Hg (1042.0 mb)
Winds: from the WSW (240 degrees) at 12 MPH (10 knots; 5.1 m/s)
Visibility: 6 or more miles (10+ km)
Ceiling: 4700 feet AGL
Clouds: broken clouds at 4700 feet AGL
Weather: no significant weather observed at this time

Forecast for: EPGD (GDANSK/REBIECHOW, PL)
Text: TAF EPGD 231130Z 2312/2412 24010KT 9999 BKN030
Forecast period: 1200 UTC 23 February 2019 to 1200 UTC 24 February 2019
Forecast type: FROM: standard forecast or significant change
Winds: from the WSW (240 degrees) at 12 MPH (10 knots; 5.1 m/s)
Visibility: 6 or more miles 10+ km)
Ceiling: 3000 feet AGL
Clouds: broken clouds at 3000 feet AGL
Weather: no significant weather forecast for this period